BAW702 EGLL-LOWW
Flight info
| Callsign | BAW702 |
|---|---|
| Flight time | 1h 39m |
| Altitude | 37000 |
| Route | DET1J DET L6 DVR UL9 KONAN DCT KOK UL607 FERDI DCT MATUG DCT GUBAX DCT BARSU DCT EKSOS DCT LULAR DCT RUDAP DCT BUDEX BUDEX2W |
| Aircraft | A320/M-SDE3FGHIRWY/LB1 |
Departure
| Time | 2026-05-06 16:08 |
|---|---|
| Airport | London Heathrow Airport (EGLL) |
Arrival
| Time | 2026-05-06 17:47 |
|---|---|
| Airport | Vienna International Airport (LOWW) |
| Time | Latitude | Longitude | Altitude | Speed | Heading |
|---|---|---|---|---|---|
| 2026-05-06 15:42 | 51.47186 | -0.48588 | 88 ft | 0 kts | 269° |
| 2026-05-06 15:59 | 51.47187 | -0.48565 | 90 ft | 4 kts | 266° |
| 2026-05-06 15:59 | 51.47190 | -0.48522 | 90 ft | 4 kts | 253° |
| 2026-05-06 15:59 | 51.47201 | -0.48485 | 90 ft | 4 kts | 218° |
| 2026-05-06 16:00 | 51.47214 | -0.48475 | 88 ft | 0 kts | 181° |
| 2026-05-06 16:02 | 51.47199 | -0.48475 | 90 ft | 5 kts | 181° |
| 2026-05-06 16:02 | 51.47151 | -0.48475 | 88 ft | 8 kts | 179° |
| 2026-05-06 16:03 | 51.47088 | -0.48473 | 88 ft | 10 kts | 179° |
| 2026-05-06 16:03 | 51.47013 | -0.48473 | 88 ft | 12 kts | 180° |
| 2026-05-06 16:03 | 51.46935 | -0.48471 | 90 ft | 11 kts | 178° |
| 2026-05-06 16:03 | 51.46861 | -0.48470 | 92 ft | 11 kts | 180° |
| 2026-05-06 16:04 | 51.46828 | -0.48470 | 92 ft | 1 kts | 180° |
| 2026-05-06 16:04 | 51.46826 | -0.48470 | 92 ft | 0 kts | 180° |
| 2026-05-06 16:05 | 51.46825 | -0.48470 | 92 ft | 0 kts | 180° |
| 2026-05-06 16:05 | 51.46820 | -0.48470 | 92 ft | 2 kts | 180° |
| 2026-05-06 16:05 | 51.46768 | -0.48470 | 92 ft | 13 kts | 179° |
| 2026-05-06 16:05 | 51.46675 | -0.48468 | 94 ft | 13 kts | 179° |
| 2026-05-06 16:06 | 51.46589 | -0.48468 | 96 ft | 12 kts | 181° |
| 2026-05-06 16:06 | 51.46499 | -0.48453 | 96 ft | 13 kts | 152° |
| 2026-05-06 16:06 | 51.46478 | -0.48357 | 94 ft | 0 kts | 90° |
| 2026-05-06 16:07 | 51.46478 | -0.48255 | 94 ft | 34 kts | 90° |
| 2026-05-06 16:08 | 51.46482 | -0.47493 | 87 ft | 100 kts | 90° |
| 2026-05-06 16:08 | 51.46487 | -0.46130 | 90 ft | 147 kts | 89° |
| 2026-05-06 16:08 | 51.46490 | -0.44301 | 254 ft | 172 kts | 89° |
| 2026-05-06 16:08 | 51.46486 | -0.42366 | 846 ft | 177 kts | 88° |
| 2026-05-06 16:09 | 51.46218 | -0.40364 | 1341 ft | 196 kts | 115° |
| 2026-05-06 16:09 | 51.45427 | -0.38506 | 1847 ft | 206 kts | 122° |
| 2026-05-06 16:09 | 51.44590 | -0.36595 | 2426 ft | 214 kts | 121° |
| 2026-05-06 16:09 | 51.43786 | -0.34544 | 3029 ft | 220 kts | 112° |
| 2026-05-06 16:10 | 51.43325 | -0.32186 | 3604 ft | 228 kts | 102° |
| 2026-05-06 16:10 | 51.42928 | -0.29623 | 4135 ft | 244 kts | 100° |
| 2026-05-06 16:10 | 51.42523 | -0.26888 | 4664 ft | 261 kts | 100° |
| 2026-05-06 16:10 | 51.42136 | -0.24051 | 5388 ft | 268 kts | 101° |
| 2026-05-06 16:11 | 51.41748 | -0.21110 | 6220 ft | 272 kts | 100° |
| 2026-05-06 16:11 | 51.41351 | -0.18115 | 7004 ft | 277 kts | 100° |
| 2026-05-06 16:11 | 51.40944 | -0.15067 | 7743 ft | 283 kts | 99° |
| 2026-05-06 16:11 | 51.40527 | -0.11960 | 8524 ft | 288 kts | 100° |
| 2026-05-06 16:12 | 51.40097 | -0.08801 | 9314 ft | 292 kts | 101° |
| 2026-05-06 16:12 | 51.39655 | -0.05598 | 10041 ft | 298 kts | 101° |
| 2026-05-06 16:12 | 51.39194 | -0.02267 | 10395 ft | 317 kts | 101° |
| 2026-05-06 16:12 | 51.38704 | 0.01258 | 10606 ft | 340 kts | 101° |
| 2026-05-06 16:13 | 51.38180 | 0.05006 | 11132 ft | 349 kts | 102° |
| 2026-05-06 16:13 | 51.37643 | 0.08832 | 11816 ft | 355 kts | 101° |
| 2026-05-06 16:13 | 51.37098 | 0.12707 | 12491 ft | 360 kts | 102° |
| 2026-05-06 16:13 | 51.36545 | 0.16641 | 13237 ft | 364 kts | 102° |
| 2026-05-06 16:14 | 51.35990 | 0.20600 | 13970 ft | 367 kts | 102° |
| 2026-05-06 16:14 | 51.35423 | 0.24611 | 14624 ft | 372 kts | 102° |
| 2026-05-06 16:14 | 51.34848 | 0.28669 | 15279 ft | 375 kts | 102° |
| 2026-05-06 16:14 | 51.34266 | 0.32754 | 15955 ft | 378 kts | 102° |
| 2026-05-06 16:15 | 51.33679 | 0.36872 | 16583 ft | 382 kts | 103° |
| 2026-05-06 16:15 | 51.33085 | 0.41034 | 17212 ft | 385 kts | 103° |
| 2026-05-06 16:15 | 51.32495 | 0.45173 | 17806 ft | 390 kts | 103° |
| 2026-05-06 16:15 | 51.31890 | 0.49399 | 18076 ft | 391 kts | 103° |
| 2026-05-06 16:16 | 51.31276 | 0.53643 | 18693 ft | 394 kts | 103° |
| 2026-05-06 16:16 | 51.30656 | 0.57926 | 19275 ft | 397 kts | 103° |
| 2026-05-06 16:16 | 51.30004 | 0.62225 | 19903 ft | 400 kts | 105° |
| 2026-05-06 16:16 | 51.29269 | 0.66530 | 20542 ft | 403 kts | 106° |
| 2026-05-06 16:17 | 51.28473 | 0.70848 | 21153 ft | 407 kts | 107° |
| 2026-05-06 16:17 | 51.27644 | 0.75191 | 21760 ft | 410 kts | 107° |
| 2026-05-06 16:17 | 51.26806 | 0.79566 | 22357 ft | 413 kts | 107° |
| 2026-05-06 16:17 | 51.25980 | 0.83920 | 22927 ft | 417 kts | 107° |
| 2026-05-06 16:18 | 51.25146 | 0.88366 | 23489 ft | 421 kts | 107° |
| 2026-05-06 16:18 | 51.24311 | 0.92860 | 23990 ft | 424 kts | 107° |
| 2026-05-06 16:18 | 51.23474 | 0.97383 | 24490 ft | 426 kts | 107° |
| 2026-05-06 16:18 | 51.22633 | 1.01936 | 24989 ft | 429 kts | 107° |
| 2026-05-06 16:19 | 51.21784 | 1.06515 | 25484 ft | 432 kts | 108° |
| 2026-05-06 16:19 | 51.20928 | 1.11119 | 25969 ft | 434 kts | 108° |
| 2026-05-06 16:19 | 51.20062 | 1.15747 | 26448 ft | 437 kts | 108° |
| 2026-05-06 16:19 | 51.19186 | 1.20398 | 26909 ft | 439 kts | 108° |
| 2026-05-06 16:20 | 51.18314 | 1.25011 | 27363 ft | 442 kts | 108° |
| 2026-05-06 16:20 | 51.17426 | 1.29713 | 27808 ft | 444 kts | 108° |
| 2026-05-06 16:20 | 51.16571 | 1.34459 | 28237 ft | 447 kts | 104° |
| 2026-05-06 16:20 | 51.16087 | 1.39371 | 28649 ft | 451 kts | 95° |
| 2026-05-06 16:21 | 51.15857 | 1.44355 | 29044 ft | 453 kts | 95° |
| 2026-05-06 16:21 | 51.15624 | 1.49371 | 29560 ft | 452 kts | 95° |
| 2026-05-06 16:21 | 51.15388 | 1.54344 | 30116 ft | 450 kts | 95° |
| 2026-05-06 16:21 | 51.15146 | 1.59308 | 30576 ft | 449 kts | 95° |
| 2026-05-06 16:22 | 51.14901 | 1.64262 | 31017 ft | 448 kts | 95° |
| 2026-05-06 16:22 | 51.14659 | 1.69140 | 31465 ft | 447 kts | 95° |
| 2026-05-06 16:22 | 51.14412 | 1.74076 | 31888 ft | 447 kts | 95° |
| 2026-05-06 16:22 | 51.14166 | 1.79007 | 32333 ft | 446 kts | 95° |
| 2026-05-06 16:23 | 51.13918 | 1.83929 | 32803 ft | 445 kts | 95° |
| 2026-05-06 16:23 | 51.13666 | 1.88844 | 33226 ft | 445 kts | 95° |
| 2026-05-06 16:23 | 51.13410 | 1.93742 | 33674 ft | 444 kts | 95° |
| 2026-05-06 16:23 | 51.13152 | 1.98645 | 34085 ft | 444 kts | 95° |
| 2026-05-06 16:24 | 51.12893 | 2.03553 | 34399 ft | 445 kts | 95° |
| 2026-05-06 16:24 | 51.12638 | 2.08393 | 34762 ft | 444 kts | 96° |
| 2026-05-06 16:24 | 51.12374 | 2.13296 | 35071 ft | 445 kts | 95° |
| 2026-05-06 16:24 | 51.12106 | 2.18206 | 35372 ft | 446 kts | 95° |
| 2026-05-06 16:25 | 51.11838 | 2.23116 | 35705 ft | 445 kts | 95° |
| 2026-05-06 16:25 | 51.11569 | 2.28034 | 35963 ft | 447 kts | 96° |
| 2026-05-06 16:25 | 51.11300 | 2.32940 | 36275 ft | 447 kts | 96° |
| 2026-05-06 16:25 | 51.11028 | 2.37864 | 36561 ft | 447 kts | 96° |
| 2026-05-06 16:26 | 51.10751 | 2.42792 | 36820 ft | 448 kts | 96° |
| 2026-05-06 16:26 | 51.10470 | 2.47733 | 36932 ft | 450 kts | 96° |
| 2026-05-06 16:26 | 51.09899 | 2.57678 | 36945 ft | 457 kts | 96° |
| 2026-05-06 16:27 | 51.09031 | 2.67680 | 36943 ft | 456 kts | 107° |
| 2026-05-06 16:27 | 51.07276 | 2.77383 | 36941 ft | 456 kts | 108° |
| 2026-05-06 16:28 | 51.05510 | 2.87075 | 36946 ft | 457 kts | 107° |
| 2026-05-06 16:28 | 51.03735 | 2.96787 | 36954 ft | 457 kts | 107° |
| 2026-05-06 16:29 | 51.01970 | 3.06421 | 36951 ft | 458 kts | 107° |
| 2026-05-06 16:29 | 51.00176 | 3.16124 | 36948 ft | 458 kts | 107° |
| 2026-05-06 16:30 | 50.98681 | 3.24193 | 36941 ft | 458 kts | 108° |
| 2026-05-06 16:30 | 50.96577 | 3.35530 | 36938 ft | 458 kts | 108° |
| 2026-05-06 16:31 | 50.94772 | 3.45151 | 36936 ft | 458 kts | 108° |
| 2026-05-06 16:31 | 50.92944 | 3.54822 | 36936 ft | 458 kts | 108° |
| 2026-05-06 16:32 | 50.91109 | 3.64483 | 36927 ft | 458 kts | 108° |
| 2026-05-06 16:32 | 50.89403 | 3.74191 | 36926 ft | 458 kts | 106° |
| 2026-05-06 16:33 | 50.87824 | 3.83895 | 36922 ft | 458 kts | 106° |
| 2026-05-06 16:34 | 50.85380 | 3.98501 | 36916 ft | 458 kts | 107° |
| 2026-05-06 16:34 | 50.83697 | 4.08212 | 36915 ft | 457 kts | 107° |
| 2026-05-06 16:35 | 50.82008 | 4.17915 | 36912 ft | 457 kts | 107° |
| 2026-05-06 16:35 | 50.80332 | 4.27546 | 36910 ft | 457 kts | 107° |
| 2026-05-06 16:36 | 50.78643 | 4.37239 | 36904 ft | 457 kts | 107° |
| 2026-05-06 16:36 | 50.76948 | 4.46923 | 36906 ft | 457 kts | 107° |
| 2026-05-06 16:37 | 50.75242 | 4.56587 | 36906 ft | 457 kts | 107° |
| 2026-05-06 16:37 | 50.73525 | 4.66251 | 36910 ft | 457 kts | 107° |
| 2026-05-06 16:38 | 50.71810 | 4.75839 | 36900 ft | 457 kts | 107° |
| 2026-05-06 16:38 | 50.70084 | 4.85482 | 36902 ft | 457 kts | 107° |
| 2026-05-06 16:39 | 50.68347 | 4.95112 | 36903 ft | 456 kts | 108° |
| 2026-05-06 16:39 | 50.66596 | 5.04727 | 36906 ft | 456 kts | 108° |
| 2026-05-06 16:40 | 50.64842 | 5.14324 | 36900 ft | 456 kts | 108° |
| 2026-05-06 16:40 | 50.63096 | 5.23860 | 36903 ft | 456 kts | 108° |
| 2026-05-06 16:41 | 50.61337 | 5.33455 | 36906 ft | 456 kts | 108° |
| 2026-05-06 16:41 | 50.59569 | 5.43041 | 36907 ft | 456 kts | 108° |
| 2026-05-06 16:42 | 50.57778 | 5.52610 | 36904 ft | 456 kts | 108° |
| 2026-05-06 16:42 | 50.55979 | 5.62171 | 36896 ft | 456 kts | 108° |
| 2026-05-06 16:43 | 50.54193 | 5.71656 | 36900 ft | 456 kts | 108° |
| 2026-05-06 16:43 | 50.52397 | 5.81211 | 36898 ft | 456 kts | 109° |
| 2026-05-06 16:44 | 50.50587 | 5.90756 | 36897 ft | 456 kts | 109° |
| 2026-05-06 16:44 | 50.48757 | 6.00288 | 36878 ft | 456 kts | 109° |
| 2026-05-06 16:45 | 50.46928 | 6.09824 | 36864 ft | 456 kts | 109° |
| 2026-05-06 16:45 | 50.45103 | 6.19293 | 36852 ft | 457 kts | 109° |
| 2026-05-06 16:46 | 50.43251 | 6.28836 | 36858 ft | 457 kts | 109° |
| 2026-05-06 16:46 | 50.41570 | 6.38462 | 36843 ft | 460 kts | 101° |
| 2026-05-06 16:47 | 50.40815 | 6.48362 | 36830 ft | 461 kts | 99° |
| 2026-05-06 16:47 | 50.40056 | 6.58332 | 36841 ft | 461 kts | 99° |
| 2026-05-06 16:48 | 50.39275 | 6.68297 | 36848 ft | 461 kts | 99° |
| 2026-05-06 16:48 | 50.38490 | 6.78254 | 36857 ft | 461 kts | 99° |
| 2026-05-06 16:49 | 50.37702 | 6.88215 | 36849 ft | 461 kts | 99° |
| 2026-05-06 16:49 | 50.36913 | 6.98108 | 36836 ft | 461 kts | 99° |
| 2026-05-06 16:50 | 50.36106 | 7.08063 | 36840 ft | 461 kts | 100° |
| 2026-05-06 16:50 | 50.35289 | 7.18024 | 36841 ft | 461 kts | 100° |
| 2026-05-06 16:51 | 50.34464 | 7.27985 | 36843 ft | 461 kts | 100° |
| 2026-05-06 16:51 | 50.33628 | 7.37945 | 36846 ft | 461 kts | 100° |
| 2026-05-06 16:52 | 50.32791 | 7.47836 | 36829 ft | 461 kts | 100° |
| 2026-05-06 16:52 | 50.31942 | 7.57791 | 36827 ft | 462 kts | 100° |
| 2026-05-06 16:53 | 50.31086 | 7.67740 | 36828 ft | 462 kts | 100° |
| 2026-05-06 16:53 | 50.30219 | 7.77692 | 36831 ft | 462 kts | 101° |
| 2026-05-06 16:54 | 50.29336 | 7.87639 | 36818 ft | 462 kts | 101° |
| 2026-05-06 16:54 | 50.28296 | 7.97468 | 36819 ft | 460 kts | 104° |
| 2026-05-06 16:55 | 50.26919 | 8.07224 | 36823 ft | 460 kts | 107° |
| 2026-05-06 16:55 | 50.25464 | 8.16963 | 36825 ft | 460 kts | 106° |
| 2026-05-06 16:56 | 50.24063 | 8.26713 | 36826 ft | 460 kts | 105° |
| 2026-05-06 16:56 | 50.22705 | 8.36495 | 36824 ft | 460 kts | 105° |
| 2026-05-06 16:57 | 50.21350 | 8.46192 | 36823 ft | 460 kts | 106° |
| 2026-05-06 16:57 | 50.19959 | 8.55937 | 36830 ft | 460 kts | 106° |
| 2026-05-06 16:58 | 50.18555 | 8.65677 | 36820 ft | 460 kts | 106° |
| 2026-05-06 16:58 | 50.17148 | 8.75402 | 36819 ft | 459 kts | 106° |
| 2026-05-06 16:59 | 50.15732 | 8.85117 | 36816 ft | 459 kts | 106° |
| 2026-05-06 16:59 | 50.14329 | 8.94755 | 36817 ft | 459 kts | 106° |
| 2026-05-06 17:00 | 50.12902 | 9.04463 | 36813 ft | 459 kts | 107° |
| 2026-05-06 17:00 | 50.11460 | 9.14168 | 36817 ft | 460 kts | 107° |
| 2026-05-06 17:01 | 50.10014 | 9.23866 | 36812 ft | 459 kts | 107° |
| 2026-05-06 17:01 | 50.08568 | 9.33480 | 36810 ft | 459 kts | 107° |
| 2026-05-06 17:02 | 50.07104 | 9.43165 | 36816 ft | 459 kts | 107° |
| 2026-05-06 17:02 | 50.05639 | 9.52844 | 36811 ft | 459 kts | 107° |
| 2026-05-06 17:03 | 50.04169 | 9.62512 | 36789 ft | 459 kts | 108° |
| 2026-05-06 17:03 | 50.02679 | 9.72175 | 36788 ft | 460 kts | 108° |
| 2026-05-06 17:04 | 50.01181 | 9.81836 | 36792 ft | 460 kts | 108° |
| 2026-05-06 17:04 | 49.99686 | 9.91479 | 36794 ft | 460 kts | 108° |
| 2026-05-06 17:05 | 49.98183 | 10.01111 | 36795 ft | 460 kts | 108° |
| 2026-05-06 17:05 | 49.96658 | 10.10753 | 36780 ft | 460 kts | 108° |
| 2026-05-06 17:06 | 49.95122 | 10.20407 | 36784 ft | 461 kts | 108° |
| 2026-05-06 17:06 | 49.93593 | 10.30007 | 36785 ft | 461 kts | 108° |
| 2026-05-06 17:07 | 49.91966 | 10.39624 | 36788 ft | 458 kts | 115° |
| 2026-05-06 17:07 | 49.89625 | 10.48765 | 36789 ft | 456 kts | 116° |
| 2026-05-06 17:08 | 49.87261 | 10.57910 | 36767 ft | 457 kts | 117° |
| 2026-05-06 17:08 | 49.84893 | 10.67060 | 36773 ft | 458 kts | 117° |
| 2026-05-06 17:09 | 49.82517 | 10.76203 | 36779 ft | 458 kts | 117° |
| 2026-05-06 17:09 | 49.80138 | 10.85282 | 36790 ft | 458 kts | 117° |
| 2026-05-06 17:10 | 49.77728 | 10.94413 | 36767 ft | 458 kts | 117° |
| 2026-05-06 17:10 | 49.75325 | 11.03553 | 36784 ft | 459 kts | 117° |
| 2026-05-06 17:11 | 49.72911 | 11.12686 | 36791 ft | 459 kts | 118° |
| 2026-05-06 17:11 | 49.70482 | 11.21806 | 36789 ft | 459 kts | 118° |
| 2026-05-06 17:12 | 49.68064 | 11.30851 | 36780 ft | 459 kts | 118° |
| 2026-05-06 17:12 | 49.65626 | 11.39944 | 36769 ft | 459 kts | 118° |
| 2026-05-06 17:13 | 49.63446 | 11.49248 | 36771 ft | 463 kts | 113° |
| 2026-05-06 17:13 | 49.61579 | 11.58762 | 36772 ft | 464 kts | 112° |
| 2026-05-06 17:14 | 49.59719 | 11.68268 | 36780 ft | 463 kts | 112° |
| 2026-05-06 17:14 | 49.57780 | 11.77644 | 36753 ft | 462 kts | 113° |
| 2026-05-06 17:15 | 49.55775 | 11.87052 | 36768 ft | 462 kts | 113° |
| 2026-05-06 17:15 | 49.53765 | 11.96449 | 36773 ft | 462 kts | 113° |
| 2026-05-06 17:16 | 49.51765 | 12.05848 | 36774 ft | 462 kts | 113° |
| 2026-05-06 17:16 | 49.49765 | 12.15195 | 36770 ft | 463 kts | 113° |
| 2026-05-06 17:17 | 49.47739 | 12.24640 | 36747 ft | 462 kts | 113° |
| 2026-05-06 17:17 | 49.45737 | 12.33954 | 36751 ft | 461 kts | 114° |
| 2026-05-06 17:18 | 49.43696 | 12.43344 | 36735 ft | 468 kts | 114° |
| 2026-05-06 17:18 | 49.41606 | 12.52929 | 36736 ft | 477 kts | 113° |
| 2026-05-06 17:19 | 49.39500 | 12.62613 | 36736 ft | 479 kts | 113° |
| 2026-05-06 17:19 | 49.37373 | 12.72307 | 36734 ft | 479 kts | 114° |
| 2026-05-06 17:20 | 49.35212 | 12.81869 | 36735 ft | 475 kts | 115° |
| 2026-05-06 17:20 | 49.32891 | 12.91320 | 36739 ft | 473 kts | 116° |
| 2026-05-06 17:21 | 49.30521 | 13.00728 | 36744 ft | 473 kts | 116° |
| 2026-05-06 17:21 | 49.28179 | 13.10147 | 36747 ft | 473 kts | 116° |
| 2026-05-06 17:22 | 49.25849 | 13.19576 | 36753 ft | 473 kts | 116° |
| 2026-05-06 17:22 | 49.23503 | 13.28989 | 36752 ft | 473 kts | 116° |
| 2026-05-06 17:23 | 49.21039 | 13.38310 | 36747 ft | 472 kts | 118° |
| 2026-05-06 17:23 | 49.18511 | 13.47494 | 36731 ft | 472 kts | 118° |
| 2026-05-06 17:24 | 49.15973 | 13.56752 | 36734 ft | 472 kts | 118° |
| 2026-05-06 17:24 | 49.13466 | 13.66019 | 36742 ft | 472 kts | 118° |
| 2026-05-06 17:25 | 49.10954 | 13.75289 | 36740 ft | 472 kts | 118° |
| 2026-05-06 17:25 | 49.09694 | 13.79922 | 36588 ft | 473 kts | 118° |
| 2026-05-06 17:25 | 49.08432 | 13.84551 | 36255 ft | 472 kts | 118° |
| 2026-05-06 17:25 | 49.07184 | 13.89111 | 35971 ft | 472 kts | 118° |
| 2026-05-06 17:26 | 49.05912 | 13.93727 | 35629 ft | 473 kts | 119° |
| 2026-05-06 17:26 | 49.04630 | 13.98348 | 35237 ft | 474 kts | 119° |
| 2026-05-06 17:26 | 49.03345 | 14.02975 | 34866 ft | 475 kts | 119° |
| 2026-05-06 17:26 | 49.02060 | 14.07614 | 34488 ft | 476 kts | 120° |
| 2026-05-06 17:27 | 49.00769 | 14.12276 | 33880 ft | 478 kts | 120° |
| 2026-05-06 17:27 | 48.99474 | 14.16949 | 33087 ft | 479 kts | 120° |
| 2026-05-06 17:27 | 48.98190 | 14.21567 | 32248 ft | 480 kts | 120° |
| 2026-05-06 17:27 | 48.96880 | 14.26254 | 31470 ft | 482 kts | 120° |
| 2026-05-06 17:28 | 48.95552 | 14.30939 | 30708 ft | 483 kts | 122° |
| 2026-05-06 17:28 | 48.93919 | 14.35355 | 29977 ft | 476 kts | 131° |
| 2026-05-06 17:28 | 48.91949 | 14.39372 | 29150 ft | 473 kts | 134° |
| 2026-05-06 17:28 | 48.89947 | 14.43332 | 28316 ft | 471 kts | 134° |
| 2026-05-06 17:29 | 48.87950 | 14.47270 | 27510 ft | 469 kts | 134° |
| 2026-05-06 17:29 | 48.85966 | 14.51184 | 26716 ft | 467 kts | 134° |
| 2026-05-06 17:29 | 48.83990 | 14.55084 | 25956 ft | 465 kts | 134° |
| 2026-05-06 17:29 | 48.82052 | 14.58920 | 25173 ft | 450 kts | 134° |
| 2026-05-06 17:30 | 48.80182 | 14.62623 | 24448 ft | 434 kts | 134° |
| 2026-05-06 17:30 | 48.78395 | 14.66155 | 23763 ft | 421 kts | 134° |
| 2026-05-06 17:30 | 48.76632 | 14.69626 | 23020 ft | 410 kts | 134° |
| 2026-05-06 17:30 | 48.74884 | 14.73039 | 22214 ft | 412 kts | 134° |
| 2026-05-06 17:31 | 48.73113 | 14.76467 | 21423 ft | 414 kts | 134° |
| 2026-05-06 17:31 | 48.71331 | 14.79914 | 20653 ft | 415 kts | 134° |
| 2026-05-06 17:31 | 48.69585 | 14.83315 | 19898 ft | 404 kts | 134° |
| 2026-05-06 17:31 | 48.67886 | 14.86645 | 19163 ft | 395 kts | 134° |
| 2026-05-06 17:32 | 48.66221 | 14.89906 | 18448 ft | 387 kts | 134° |
| 2026-05-06 17:32 | 48.64593 | 14.93086 | 17692 ft | 380 kts | 133° |
| 2026-05-06 17:32 | 48.62987 | 14.96209 | 16974 ft | 373 kts | 133° |
| 2026-05-06 17:32 | 48.61419 | 14.99261 | 16752 ft | 373 kts | 131° |
| 2026-05-06 17:33 | 48.60178 | 15.02728 | 16697 ft | 382 kts | 113° |
| 2026-05-06 17:33 | 48.59501 | 15.06643 | 16714 ft | 387 kts | 108° |
| 2026-05-06 17:33 | 48.58888 | 15.10598 | 16716 ft | 387 kts | 108° |
| 2026-05-06 17:33 | 48.58282 | 15.14557 | 16717 ft | 387 kts | 108° |
| 2026-05-06 17:34 | 48.57668 | 15.18509 | 16717 ft | 386 kts | 110° |
| 2026-05-06 17:34 | 48.56662 | 15.22203 | 16720 ft | 378 kts | 122° |
| 2026-05-06 17:34 | 48.55464 | 15.25741 | 16716 ft | 379 kts | 122° |
| 2026-05-06 17:34 | 48.54261 | 15.29277 | 16716 ft | 379 kts | 122° |
| 2026-05-06 17:35 | 48.53058 | 15.32804 | 16701 ft | 378 kts | 122° |
| 2026-05-06 17:35 | 48.51876 | 15.36273 | 16412 ft | 373 kts | 122° |
| 2026-05-06 17:35 | 48.50698 | 15.39730 | 15530 ft | 368 kts | 121° |
| 2026-05-06 17:36 | 48.48383 | 15.46497 | 14274 ft | 361 kts | 121° |
| 2026-05-06 17:36 | 48.47226 | 15.49854 | 13819 ft | 361 kts | 121° |
| 2026-05-06 17:36 | 48.46071 | 15.53203 | 13356 ft | 359 kts | 121° |
| 2026-05-06 17:36 | 48.44925 | 15.56527 | 12855 ft | 356 kts | 121° |
| 2026-05-06 17:37 | 48.43806 | 15.59778 | 12364 ft | 342 kts | 121° |
| 2026-05-06 17:37 | 48.42739 | 15.62886 | 11870 ft | 329 kts | 121° |
| 2026-05-06 17:37 | 48.41703 | 15.65900 | 11397 ft | 319 kts | 121° |
| 2026-05-06 17:37 | 48.40696 | 15.68823 | 10915 ft | 310 kts | 121° |
| 2026-05-06 17:38 | 48.39725 | 15.71625 | 10453 ft | 302 kts | 121° |
| 2026-05-06 17:38 | 48.38762 | 15.74395 | 10008 ft | 296 kts | 121° |
| 2026-05-06 17:38 | 48.37820 | 15.77102 | 9538 ft | 290 kts | 121° |
| 2026-05-06 17:38 | 48.36894 | 15.79764 | 9048 ft | 285 kts | 121° |
| 2026-05-06 17:39 | 48.35990 | 15.82366 | 8693 ft | 275 kts | 121° |
| 2026-05-06 17:39 | 48.35112 | 15.84883 | 8417 ft | 270 kts | 121° |
| 2026-05-06 17:39 | 48.34242 | 15.87371 | 8138 ft | 268 kts | 121° |
| 2026-05-06 17:39 | 48.33375 | 15.89852 | 7867 ft | 268 kts | 121° |
| 2026-05-06 17:40 | 48.32497 | 15.92358 | 7595 ft | 279 kts | 121° |
| 2026-05-06 17:40 | 48.31572 | 15.94984 | 7326 ft | 287 kts | 121° |
| 2026-05-06 17:40 | 48.30639 | 15.97632 | 7056 ft | 288 kts | 121° |
| 2026-05-06 17:40 | 48.29708 | 16.00285 | 6800 ft | 286 kts | 121° |
| 2026-05-06 17:41 | 48.29094 | 16.02042 | 6623 ft | 287 kts | 121° |
| 2026-05-06 17:41 | 48.27873 | 16.05541 | 6275 ft | 285 kts | 121° |
| 2026-05-06 17:41 | 48.26955 | 16.08167 | 5990 ft | 282 kts | 122° |
| 2026-05-06 17:41 | 48.26079 | 16.10732 | 5704 ft | 269 kts | 121° |
| 2026-05-06 17:42 | 48.25272 | 16.13185 | 5422 ft | 255 kts | 121° |
| 2026-05-06 17:42 | 48.24507 | 16.15534 | 5157 ft | 248 kts | 121° |
| 2026-05-06 17:42 | 48.24013 | 16.17051 | 5044 ft | 241 kts | 121° |
| 2026-05-06 17:42 | 48.23300 | 16.19240 | 4998 ft | 227 kts | 122° |
| 2026-05-06 17:43 | 48.22617 | 16.21353 | 4997 ft | 224 kts | 122° |
| 2026-05-06 17:43 | 48.21940 | 16.23456 | 5001 ft | 224 kts | 122° |
| 2026-05-06 17:43 | 48.21268 | 16.25552 | 4998 ft | 220 kts | 122° |
| 2026-05-06 17:43 | 48.20630 | 16.27553 | 4994 ft | 206 kts | 123° |
| 2026-05-06 17:44 | 48.19810 | 16.30079 | 4993 ft | 201 kts | 122° |
| 2026-05-06 17:44 | 48.19401 | 16.31366 | 4970 ft | 202 kts | 122° |
| 2026-05-06 17:44 | 48.18808 | 16.33263 | 4816 ft | 200 kts | 121° |
| 2026-05-06 17:44 | 48.18229 | 16.35129 | 4539 ft | 199 kts | 122° |
| 2026-05-06 17:45 | 48.17623 | 16.37015 | 3878 ft | 203 kts | 122° |
| 2026-05-06 17:45 | 48.17014 | 16.38893 | 3257 ft | 195 kts | 123° |
| 2026-05-06 17:45 | 48.16432 | 16.40682 | 2662 ft | 187 kts | 123° |
| 2026-05-06 17:45 | 48.15849 | 16.42392 | 2295 ft | 179 kts | 123° |
| 2026-05-06 17:46 | 48.15312 | 16.44016 | 2019 ft | 169 kts | 126° |
| 2026-05-06 17:46 | 48.14795 | 16.45592 | 1742 ft | 169 kts | 126° |
| 2026-05-06 17:46 | 48.14299 | 16.47125 | 1509 ft | 156 kts | 126° |
| 2026-05-06 17:46 | 48.13848 | 16.48518 | 1315 ft | 145 kts | 123° |
| 2026-05-06 17:47 | 48.13415 | 16.49848 | 1132 ft | 142 kts | 123° |
| 2026-05-06 17:47 | 48.12996 | 16.51171 | 938 ft | 138 kts | 124° |
| 2026-05-06 17:47 | 48.12579 | 16.52448 | 775 ft | 136 kts | 127° |
| 2026-05-06 17:47 | 48.12235 | 16.53442 | 618 ft | 0 kts | 117° |